Time;durP1;ratioP1;P1;durP2;ratioP2;P2;SDS_P1;SDS_P2;PMS_P1;PMS_P2;Temp;Humidity;BMP_temperature;BMP_pressure;BME280_temperature;BME280_humidity;BME280_pressure;Samples;Min_cycle;Max_cycle;Signal;HPM_P1;HPM_P2
2022/12/03 00:00:51;;;;;;;9.87;2.30;;;22.10;57.90;;;;;;5037920;28;20238;-72
2022/12/03 00:03:18;;;;;;;9.27;1.80;;;21.90;58.50;;;;;;5032975;28;20177;-68
2022/12/03 00:05:46;;;;;;;7.93;1.83;;;21.90;58.10;;;;;;5032476;28;20655;-68
2022/12/03 00:08:13;;;;;;;5.63;1.87;;;22.10;57.90;;;;;;5032101;28;20173;-68
2022/12/03 00:10:40;;;;;;;9.80;1.83;;;22.20;56.80;;;;;;5032207;28;20177;-68
2022/12/03 00:13:08;;;;;;;7.70;1.93;;;22.20;57.00;;;;;;5032402;28;20276;-68
2022/12/03 00:15:35;;;;;;;3.73;1.17;;;22.20;56.60;;;;;;5031565;28;20568;-68
2022/12/03 00:18:02;;;;;;;7.67;1.80;;;22.20;56.40;;;;;;5032095;28;20181;-69
2022/12/03 00:20:30;;;;;;;10.00;1.90;;;22.30;57.30;;;;;;5030673;28;20180;-69
2022/12/03 00:22:57;;;;;;;6.83;1.93;;;22.30;56.70;;;;;;5031718;28;20640;-69
2022/12/03 00:25:25;;;;;;;7.83;1.80;;;22.30;57.40;;;;;;5031572;28;20213;-69
2022/12/03 00:27:52;;;;;;;9.70;1.93;;;22.50;56.80;;;;;;5031080;28;20591;-68
2022/12/03 00:30:19;;;;;;;7.43;2.00;;;22.40;56.90;;;;;;5038863;28;20180;-68
2022/12/03 00:32:47;;;;;;;6.63;1.93;;;22.40;56.80;;;;;;5038616;28;20534;-68
2022/12/03 00:35:14;;;;;;;7.27;1.90;;;22.30;57.30;;;;;;5035367;28;20173;-67
2022/12/03 00:37:41;;;;;;;8.07;2.20;;;22.40;56.90;;;;;;5058192;28;20706;-68
2022/12/03 00:40:11;;;;;;;8.83;1.80;;;22.50;55.90;;;;;;5074941;28;20163;-68
2022/12/03 00:42:38;;;;;;;7.17;1.77;;;22.60;55.40;;;;;;5073697;28;20202;-70
2022/12/03 00:45:06;;;;;;;5.50;1.93;;;22.60;56.20;;;;;;5043269;28;20208;-68
2022/12/03 00:47:33;;;;;;;7.43;1.73;;;22.60;55.70;;;;;;5034955;28;20235;-69
2022/12/03 00:50:01;;;;;;;8.47;1.70;;;22.30;57.80;;;;;;5043210;28;20185;-69
2022/12/03 00:52:28;;;;;;;6.40;2.20;;;22.20;58.20;;;;;;5034328;28;20680;-69
2022/12/03 00:54:55;;;;;;;6.60;1.80;;;22.00;58.70;;;;;;5034438;28;20189;-68
2022/12/03 00:57:29;;;;;;;10.43;2.07;;;21.90;58.90;;;;;;5033587;28;20168;-74
2022/12/03 00:59:57;;;;;;;7.13;2.33;;;21.80;59.10;;;;;;5036390;28;20176;-73
2022/12/03 01:02:27;;;;;;;6.13;1.73;;;21.90;59.20;;;;;;5035568;28;20168;-74
2022/12/03 01:04:55;;;;;;;6.63;1.90;;;21.90;59.50;;;;;;5035422;28;20739;-68
2022/12/03 01:07:28;;;;;;;6.40;1.97;;;21.80;60.30;;;;;;5035048;28;20220;-73
2022/12/03 01:09:55;;;;;;;9.43;2.00;;;22.00;59.70;;;;;;5036527;28;20553;-71
2022/12/03 01:12:26;;;;;;;7.43;1.70;;;22.20;58.90;;;;;;5035286;28;20252;-73
2022/12/03 01:14:54;;;;;;;10.90;1.97;;;22.30;58.60;;;;;;5035178;28;20655;-73
2022/12/03 01:17:27;;;;;;;8.57;1.90;;;22.50;57.80;;;;;;5034862;28;20259;-72
2022/12/03 01:19:55;;;;;;;6.27;1.80;;;22.50;58.40;;;;;;5035171;28;20200;-72
2022/12/03 01:22:22;;;;;;;4.77;1.80;;;22.80;57.10;;;;;;5034913;28;20188;-68
2022/12/03 01:24:49;;;;;;;5.47;1.93;;;22.60;57.10;;;;;;5038062;28;20632;-69
2022/12/03 01:27:17;;;;;;;7.93;2.20;;;22.30;57.20;;;;;;5046320;28;20186;-69
2022/12/03 01:29:44;;;;;;;5.33;1.80;;;22.30;58.00;;;;;;5035173;28;20710;-69
2022/12/03 01:32:18;;;;;;;6.67;1.53;;;22.30;58.80;;;;;;5034396;28;20237;-67
2022/12/03 01:34:55;;;;;;;5.07;1.73;;;22.30;58.10;;;;;;5034706;28;20193;-67
2022/12/03 01:37:24;;;;;;;5.73;1.80;;;22.70;56.40;;;;;;5034298;28;20184;-67
2022/12/03 01:39:52;;;;;;;4.87;1.87;;;23.60;54.00;;;;;;5033328;28;20263;-67
2022/12/03 01:42:25;;;;;;;5.43;1.60;;;24.10;52.10;;;;;;5034424;28;20196;-68
2022/12/03 01:44:57;;;;;;;7.03;1.60;;;24.40;51.00;;;;;;5034068;28;20667;-68
2022/12/03 01:47:31;;;;;;;5.23;1.60;;;24.50;49.60;;;;;;5033968;28;20299;-69
2022/12/03 01:50:14;;;;;;;5.33;1.20;;;24.30;49.90;;;;;;5034360;28;20183;-68
2022/12/03 01:52:42;;;;;;;6.07;1.63;;;24.60;50.70;;;;;;5034112;28;20189;-68
2022/12/03 01:55:28;;;;;;;4.77;1.60;;;25.00;48.00;;;;;;5033539;28;20275;-67
2022/12/03 01:57:59;;;;;;;5.50;1.70;;;25.20;47.10;;;;;;5034242;28;20172;-68
2022/12/03 02:00:28;;;;;;;5.13;1.53;;;25.20;47.30;;;;;;5041607;28;20179;-70
2022/12/03 02:02:59;;;;;;;8.33;1.80;;;25.30;47.60;;;;;;5033969;28;20169;-67
2022/12/03 02:05:32;;;;;;;5.13;1.70;;;25.70;47.50;;;;;;5033563;28;20220;-70
2022/12/03 02:08:00;;;;;;;5.17;1.50;;;25.40;46.60;;;;;;5033323;28;20644;-67
2022/12/03 02:10:35;;;;;;;5.07;1.70;;;24.40;49.70;;;;;;5034027;28;20640;-67
2022/12/03 02:13:08;;;;;;;8.37;1.90;;;24.80;49.50;;;;;;5032672;28;20176;-69
2022/12/03 02:15:37;;;;;;;5.07;1.33;;;25.30;47.70;;;;;;5032377;28;20172;-70
2022/12/03 02:18:06;;;;;;;3.07;1.27;;;25.00;47.50;;;;;;5033592;28;20554;-68
2022/12/03 02:20:46;;;;;;;4.50;1.67;;;25.00;46.90;;;;;;5033703;28;20180;-68
2022/12/03 02:23:34;;;;;;;4.77;1.57;;;25.60;46.70;;;;;;5033386;28;20665;-71
2022/12/03 02:26:02;;;;;;;3.77;1.50;;;26.00;45.10;;;;;;5033706;28;20199;-71
2022/12/03 02:28:29;;;;;;;6.80;1.70;;;25.70;47.00;;;;;;5035688;28;20543;-71
2022/12/03 02:30:56;;;;;;;4.70;1.57;;;25.70;46.90;;;;;;5033686;28;20172;-71
2022/12/03 02:33:24;;;;;;;3.60;1.30;;;25.20;47.60;;;;;;5035702;28;20176;-68
2022/12/03 02:35:51;;;;;;;5.27;1.47;;;25.10;49.70;;;;;;5033369;28;20195;-71
2022/12/03 02:38:24;;;;;;;6.30;1.80;;;25.00;49.40;;;;;;5033213;28;20635;-68
2022/12/03 02:40:56;;;;;;;4.70;1.40;;;25.20;49.30;;;;;;5033415;28;20313;-70
2022/12/03 02:43:23;;;;;;;4.90;1.90;;;25.30;48.70;;;;;;5033182;28;20226;-69
2022/12/03 02:45:54;;;;;;;5.87;1.60;;;25.50;47.40;;;;;;5033250;28;20219;-70
2022/12/03 02:48:30;;;;;;;4.73;1.50;;;25.90;46.30;;;;;;5033141;28;20565;-69
2022/12/03 02:51:04;;;;;;;4.20;1.47;;;25.80;47.80;;;;;;5033083;28;20629;-70
2022/12/03 02:53:41;;;;;;;4.33;1.40;;;25.80;47.10;;;;;;5032585;28;20226;-68
2022/12/03 02:56:11;;;;;;;6.83;1.60;;;25.70;47.40;;;;;;5032942;28;20180;-69
2022/12/03 02:58:39;;;;;;;3.83;1.40;;;26.30;47.00;;;;;;5037907;28;20343;-69
2022/12/03 03:01:08;;;;;;;7.80;1.40;;;25.90;47.10;;;;;;5038671;28;20241;-69
2022/12/03 03:03:37;;;;;;;3.10;1.43;;;25.70;48.10;;;;;;5040256;28;20191;-70
2022/12/03 03:06:06;;;;;;;4.03;1.50;;;26.10;45.50;;;;;;5045503;28;20183;-69
2022/12/03 03:08:34;;;;;;;4.87;1.63;;;25.70;44.90;;;;;;5032071;28;20710;-69
2022/12/03 03:11:03;;;;;;;3.57;1.30;;;25.80;45.50;;;;;;5032744;28;20169;-68
2022/12/03 03:13:32;;;;;;;3.77;1.30;;;25.90;45.50;;;;;;5032374;28;20187;-69
2022/12/03 03:16:01;;;;;;;4.07;1.20;;;26.20;44.20;;;;;;5032738;28;20211;-69
2022/12/03 03:18:29;;;;;;;4.47;1.40;;;26.60;43.90;;;;;;5032394;28;20169;-69
2022/12/03 03:20:56;;;;;;;4.23;1.50;;;25.90;45.90;;;;;;5032371;28;20203;-69
2022/12/03 03:23:24;;;;;;;5.23;1.40;;;25.90;46.50;;;;;;5032217;28;20173;-69
2022/12/03 03:25:59;;;;;;;6.37;1.33;;;26.10;46.80;;;;;;5032379;28;20200;-69
2022/12/03 03:28:28;;;;;;;5.50;1.63;;;25.80;46.90;;;;;;5032776;28;20189;-70
2022/12/03 03:30:57;;;;;;;4.53;1.70;;;25.80;46.20;;;;;;5032471;28;20176;-71
2022/12/03 03:33:24;;;;;;;3.23;1.50;;;26.20;46.00;;;;;;5032499;28;20227;-69
2022/12/03 03:35:52;;;;;;;7.07;1.70;;;26.00;46.80;;;;;;5032676;28;20230;-69
2022/12/03 03:38:21;;;;;;;3.87;1.50;;;26.20;44.60;;;;;;5032536;28;20177;-71
2022/12/03 03:40:51;;;;;;;6.23;1.40;;;25.60;46.50;;;;;;5032778;28;20627;-70
2022/12/03 03:43:22;;;;;;;5.47;1.90;;;25.90;44.00;;;;;;5032498;28;20635;-70
2022/12/03 03:45:50;;;;;;;3.73;1.50;;;26.20;44.50;;;;;;5032534;28;20247;-69
2022/12/03 03:48:19;;;;;;;4.03;1.37;;;26.20;45.00;;;;;;5032277;28;20273;-70
2022/12/03 03:50:46;;;;;;;5.50;1.40;;;25.60;46.80;;;;;;5032506;28;20177;-71
2022/12/03 03:53:14;;;;;;;4.00;1.40;;;25.80;46.10;;;;;;5032036;28;20567;-70
2022/12/03 03:55:42;;;;;;;3.10;1.43;;;26.00;46.70;;;;;;5032969;28;20220;-70
2022/12/03 03:58:09;;;;;;;3.87;1.40;;;25.80;45.80;;;;;;5033220;28;20674;-70
2022/12/03 04:00:52;;;;;;;6.47;1.43;;;25.80;47.30;;;;;;5018501;28;20938;-70
2022/12/03 04:03:20;;;;;;;4.50;1.40;;;26.00;46.20;;;;;;5045201;28;20192;-69
2022/12/03 04:05:49;;;;;;;4.60;1.10;;;26.30;44.00;;;;;;5036615;28;20216;-69
2022/12/03 04:08:18;;;;;;;3.57;1.20;;;26.10;45.20;;;;;;5040133;28;20210;-70
2022/12/03 04:13:30;;;;;;;4.20;1.30;;;26.50;45.90;;;;;;5038666;28;20184;-69
2022/12/03 04:15:58;;;;;;;3.77;1.50;;;26.80;44.60;;;;;;5039232;28;20183;-68
2022/12/03 04:18:43;;;;;;;4.20;1.10;;;27.40;43.60;;;;;;5062298;28;20207;-69
2022/12/03 04:24:09;;;;;;;3.57;1.50;;;27.40;43.00;;;;;;5051890;28;20207;-68
2022/12/03 04:29:22;;;;;;;2.80;1.40;;;26.70;43.80;;;;;;5039855;28;20238;-68
2022/12/03 04:37:20;;;;;;;5.40;1.40;;;26.50;44.40;;;;;;5034996;28;20246;-70
2022/12/03 04:39:48;;;;;;;4.83;1.43;;;27.20;42.30;;;;;;5040336;28;20281;-69
2022/12/03 04:42:15;;;;;;;3.50;1.37;;;27.10;43.50;;;;;;5047074;28;20187;-71
2022/12/03 04:44:43;;;;;;;4.17;1.30;;;27.00;43.70;;;;;;5034955;28;20216;-70
2022/12/03 04:47:18;;;;;;;3.53;1.20;;;27.30;43.00;;;;;;5053232;28;20184;-69
2022/12/03 04:49:48;;;;;;;2.77;1.13;;;26.80;43.70;;;;;;5043856;28;20266;-69
2022/12/03 04:52:17;;;;;;;2.03;1.00;;;26.50;45.80;;;;;;5034835;28;20945;-68
2022/12/03 04:54:45;;;;;;;3.63;1.40;;;27.00;43.00;;;;;;5039371;28;20689;-68
2022/12/03 04:57:12;;;;;;;4.30;1.20;;;27.00;44.20;;;;;;5035217;28;20180;-69
2022/12/03 04:59:39;;;;;;;4.30;1.30;;;27.20;42.50;;;;;;5044666;28;20639;-68
2022/12/03 05:02:07;;;;;;;3.63;1.17;;;27.30;43.80;;;;;;5045604;28;20182;-69
2022/12/03 05:04:35;;;;;;;3.23;1.03;;;27.50;43.10;;;;;;5054032;28;20658;-70
2022/12/03 05:07:02;;;;;;;4.03;1.37;;;26.90;44.30;;;;;;5036987;28;20184;-70
2022/12/03 05:09:29;;;;;;;3.80;1.07;;;26.80;44.20;;;;;;5034484;28;20655;-70
2022/12/03 05:11:57;;;;;;;4.80;1.27;;;27.00;43.10;;;;;;5047295;28;20184;-70
2022/12/03 05:14:24;;;;;;;2.17;0.80;;;27.30;42.40;;;;;;5039506;28;20197;-71
2022/12/03 05:16:52;;;;;;;2.13;1.00;;;27.00;42.60;;;;;;5045492;28;20714;-72
2022/12/03 05:19:19;;;;;;;2.80;0.97;;;26.30;44.70;;;;;;5044849;28;20191;-70
2022/12/03 05:21:46;;;;;;;3.17;1.00;;;26.80;43.70;;;;;;5045596;28;20652;-70
2022/12/03 05:24:13;;;;;;;1.93;0.93;;;27.10;43.30;;;;;;5034521;28;20224;-67
2022/12/03 05:26:41;;;;;;;3.97;1.17;;;27.20;44.70;;;;;;5034799;28;20177;-68
2022/12/03 05:29:08;;;;;;;2.33;0.90;;;27.30;43.60;;;;;;5043129;28;20187;-70
2022/12/03 05:31:35;;;;;;;2.70;0.90;;;27.70;43.20;;;;;;5037848;28;20183;-69
2022/12/03 05:34:03;;;;;;;2.47;1.00;;;27.30;44.00;;;;;;5042235;28;20255;-68
2022/12/03 05:36:30;;;;;;;4.70;1.30;;;27.30;44.80;;;;;;5040930;28;20222;-72
2022/12/03 05:38:57;;;;;;;2.30;1.03;;;27.70;44.00;;;;;;5048427;28;20183;-70
2022/12/03 05:44:10;;;;;;;7.10;1.27;;;26.80;45.50;;;;;;5034239;28;20203;-71
2022/12/03 05:46:37;;;;;;;4.73;1.30;;;27.70;44.20;;;;;;5049022;28;20176;-70
2022/12/03 05:49:04;;;;;;;2.67;1.00;;;27.60;43.60;;;;;;5041876;28;20232;-71
2022/12/03 05:51:32;;;;;;;2.47;0.90;;;27.40;44.90;;;;;;5038985;28;20198;-68
2022/12/03 05:53:59;;;;;;;3.83;1.10;;;26.30;47.10;;;;;;5039937;28;20185;-69
2022/12/03 05:56:26;;;;;;;2.10;1.00;;;26.40;47.20;;;;;;5040877;28;20193;-68
2022/12/03 05:58:54;;;;;;;5.67;1.23;;;27.40;45.40;;;;;;5041335;28;20172;-71
2022/12/03 06:01:21;;;;;;;3.00;1.10;;;27.40;45.00;;;;;;5037889;28;20176;-69
2022/12/03 06:03:48;;;;;;;2.33;1.00;;;27.70;45.00;;;;;;5043238;28;20249;-69
2022/12/03 06:06:16;;;;;;;2.57;1.10;;;28.30;42.70;;;;;;5036439;28;20177;-69
2022/12/03 06:08:43;;;;;;;2.70;1.00;;;27.80;43.70;;;;;;5035945;28;20172;-70
2022/12/03 06:11:10;;;;;;;3.00;1.40;;;28.00;44.30;;;;;;5048525;28;20625;-69
2022/12/03 06:13:38;;;;;;;10.77;2.77;;;27.40;44.30;;;;;;5038781;28;20237;-69
2022/12/03 06:16:05;;;;;;;2.07;1.10;;;27.30;45.40;;;;;;5053288;28;20168;-69
2022/12/03 06:18:32;;;;;;;4.10;1.60;;;27.30;45.70;;;;;;5040842;28;20209;-69
2022/12/03 06:21:00;;;;;;;3.87;1.83;;;27.60;43.80;;;;;;5046748;28;20677;-69
2022/12/03 06:23:27;;;;;;;4.83;1.27;;;27.10;45.70;;;;;;5034921;28;20260;-68
2022/12/03 06:25:54;;;;;;;4.03;1.20;;;26.60;47.60;;;;;;5037585;28;20298;-69
2022/12/03 06:28:22;;;;;;;5.50;1.30;;;26.50;47.50;;;;;;5036345;28;20184;-69
2022/12/03 06:30:49;;;;;;;5.00;0.90;;;26.90;45.90;;;;;;5042213;28;20259;-69
2022/12/03 06:33:16;;;;;;;3.47;1.10;;;26.30;47.70;;;;;;5033028;28;20264;-70
2022/12/03 06:35:44;;;;;;;4.83;1.43;;;26.80;46.10;;;;;;5035057;28;20632;-68
2022/12/03 06:38:11;;;;;;;4.53;1.20;;;27.00;46.00;;;;;;5050517;28;20192;-69
2022/12/03 06:40:38;;;;;;;2.13;1.20;;;27.80;45.00;;;;;;5047124;28;20237;-69
2022/12/03 06:43:06;;;;;;;3.87;1.30;;;28.50;43.10;;;;;;5047416;28;20177;-69
2022/12/03 06:45:33;;;;;;;3.60;1.10;;;27.60;44.60;;;;;;5042911;28;20243;-70
2022/12/03 06:48:01;;;;;;;2.67;1.20;;;27.20;45.40;;;;;;5044517;28;20633;-69
2022/12/03 06:50:28;;;;;;;3.57;1.23;;;26.30;47.70;;;;;;5042082;28;20236;-68
2022/12/03 06:52:55;;;;;;;3.80;1.20;;;27.20;46.50;;;;;;5032714;28;20588;-69
2022/12/03 06:55:23;;;;;;;3.20;1.30;;;27.10;46.30;;;;;;5032109;28;20242;-69
2022/12/03 06:57:50;;;;;;;4.17;1.43;;;27.40;46.80;;;;;;5039855;28;20180;-69
2022/12/03 07:00:18;;;;;;;4.60;1.33;;;26.70;47.10;;;;;;5041344;28;20200;-68
2022/12/03 07:02:45;;;;;;;2.83;1.10;;;26.50;48.10;;;;;;5032887;28;20635;-69
2022/12/03 07:05:13;;;;;;;3.70;1.07;;;26.20;48.80;;;;;;5044658;28;20227;-70
2022/12/03 07:07:40;;;;;;;4.97;1.40;;;26.50;48.80;;;;;;5044334;28;20179;-69
2022/12/03 07:10:08;;;;;;;2.23;0.93;;;26.50;48.50;;;;;;5051668;28;20264;-68
2022/12/03 07:12:35;;;;;;;3.23;1.03;;;25.60;50.40;;;;;;5041250;28;20223;-69
2022/12/03 07:15:02;;;;;;;5.67;1.53;;;24.80;52.50;;;;;;5039303;28;20712;-68
2022/12/03 07:17:30;;;;;;;3.17;1.07;;;24.70;53.30;;;;;;5032701;28;20190;-68
2022/12/03 07:19:57;;;;;;;1.90;0.90;;;24.70;52.80;;;;;;5032550;28;20267;-67
2022/12/03 07:22:24;;;;;;;5.90;1.60;;;24.40;53.90;;;;;;5032530;28;20172;-70
2022/12/03 07:24:52;;;;;;;3.43;1.17;;;24.20;54.50;;;;;;5036840;28;20303;-70
2022/12/03 07:27:19;;;;;;;2.90;1.40;;;23.50;56.70;;;;;;5043428;28;20192;-66
2022/12/03 07:29:46;;;;;;;4.37;1.63;;;23.10;58.20;;;;;;5046388;28;20191;-67
2022/12/03 07:32:14;;;;;;;4.63;1.43;;;23.30;57.30;;;;;;5035908;28;20185;-67
2022/12/03 07:34:41;;;;;;;2.57;1.30;;;23.20;57.30;;;;;;5047905;28;20234;-66
2022/12/03 07:37:08;;;;;;;4.07;1.70;;;23.10;57.60;;;;;;5037098;28;20192;-67
2022/12/03 07:39:36;;;;;;;5.10;1.40;;;23.00;58.60;;;;;;5045094;28;20270;-67
2022/12/03 07:42:03;;;;;;;4.37;1.60;;;22.90;58.20;;;;;;5054044;28;20184;-67
2022/12/03 07:44:31;;;;;;;4.33;1.30;;;22.80;58.80;;;;;;5036333;28;20571;-67
2022/12/03 07:46:58;;;;;;;5.03;1.80;;;22.70;59.40;;;;;;5036537;28;20264;-67
2022/12/03 07:49:26;;;;;;;3.83;1.53;;;22.80;59.50;;;;;;5041882;28;20192;-69
2022/12/03 07:51:53;;;;;;;4.00;1.80;;;22.70;59.60;;;;;;5039221;28;20206;-67
2022/12/03 07:54:21;;;;;;;3.13;1.27;;;22.40;59.80;;;;;;5039987;28;20187;-68
2022/12/03 07:56:49;;;;;;;5.07;1.37;;;22.20;60.70;;;;;;5047357;28;20654;-69
2022/12/03 07:59:17;;;;;;;5.13;1.70;;;22.00;61.10;;;;;;5044476;28;20309;-67
2022/12/03 08:01:44;;;;;;;5.23;1.30;;;21.90;60.70;;;;;;5051805;28;20180;-67
2022/12/03 08:04:13;;;;;;;2.20;1.13;;;21.70;62.50;;;;;;5042032;28;20208;-69
2022/12/03 08:06:41;;;;;;;5.20;1.40;;;21.70;62.30;;;;;;5037760;28;20222;-68
2022/12/03 08:09:08;;;;;;;5.90;1.60;;;21.50;62.60;;;;;;5066902;28;20535;-70
2022/12/03 08:11:35;;;;;;;6.87;1.67;;;21.30;63.10;;;;;;5044859;28;20187;-67
2022/12/03 08:14:15;;;;;;;6.67;1.20;;;21.20;64.00;;;;;;5036219;28;20212;-68
2022/12/03 08:16:45;;;;;;;5.40;1.40;;;21.20;64.40;;;;;;5036046;28;20543;-68
2022/12/03 08:19:15;;;;;;;2.83;1.40;;;21.10;64.30;;;;;;5035695;28;20187;-67
2022/12/03 08:21:43;;;;;;;6.70;1.40;;;21.00;64.70;;;;;;5042293;28;20204;-68
2022/12/03 08:24:15;;;;;;;6.47;1.60;;;21.10;64.80;;;;;;5044271;28;20212;-68
2022/12/03 08:26:44;;;;;;;3.93;1.53;;;21.00;65.40;;;;;;5035774;28;20259;-68
2022/12/03 08:29:14;;;;;;;5.10;1.47;;;21.00;65.60;;;;;;5045366;28;20211;-68
2022/12/03 08:31:46;;;;;;;4.43;1.50;;;21.00;65.70;;;;;;5043274;28;20187;-67
2022/12/03 08:34:18;;;;;;;5.47;1.40;;;20.90;66.10;;;;;;5036395;28;20188;-69
2022/12/03 08:36:49;;;;;;;7.17;1.57;;;20.80;65.90;;;;;;5044312;28;20176;-68
2022/12/03 08:39:27;;;;;;;5.73;1.70;;;20.80;66.30;;;;;;5050319;28;20180;-68
2022/12/03 08:44:45;;;;;;;4.33;1.57;;;20.80;66.20;;;;;;5039549;28;20579;-69
2022/12/03 08:47:20;;;;;;;8.00;2.30;;;20.60;67.20;;;;;;5051354;28;20180;-68
2022/12/03 08:49:58;;;;;;;4.73;1.80;;;20.50;67.80;;;;;;5035011;28;20192;-68
2022/12/03 08:52:32;;;;;;;4.83;1.80;;;20.50;67.90;;;;;;5041146;28;20732;-68
2022/12/03 08:55:10;;;;;;;5.27;1.70;;;20.50;68.10;;;;;;5047277;28;20186;-68
2022/12/03 08:57:42;;;;;;;14.37;2.30;;;20.40;68.30;;;;;;5049706;28;20188;-67
2022/12/03 09:00:22;;;;;;;6.73;1.77;;;20.40;68.10;;;;;;5050192;28;20176;-67
2022/12/03 09:02:52;;;;;;;9.03;2.60;;;20.30;68.80;;;;;;5039615;28;20385;-67
2022/12/03 09:05:23;;;;;;;5.33;2.03;;;20.40;68.60;;;;;;5050656;28;20289;-68
2022/12/03 09:07:50;;;;;;;8.00;2.40;;;20.20;69.40;;;;;;5049636;28;20184;-68
2022/12/03 09:10:17;;;;;;;5.57;2.40;;;20.30;69.60;;;;;;5047649;28;20193;-67
2022/12/03 09:12:45;;;;;;;8.43;1.90;;;20.20;69.70;;;;;;5035790;28;20263;-68
2022/12/03 09:15:12;;;;;;;6.83;1.83;;;20.10;70.20;;;;;;5040223;28;20184;-68
2022/12/03 09:17:39;;;;;;;6.00;1.53;;;20.10;70.50;;;;;;5045101;28;20183;-69
2022/12/03 09:20:07;;;;;;;2.80;1.40;;;20.10;70.80;;;;;;5036670;28;20651;-68
2022/12/03 09:22:35;;;;;;;8.43;1.73;;;20.00;71.00;;;;;;5034398;28;20234;-68
2022/12/03 09:25:02;;;;;;;5.43;1.87;;;20.00;71.40;;;;;;5042538;28;20246;-68
2022/12/03 09:27:29;;;;;;;4.10;1.40;;;20.00;71.50;;;;;;5040118;28;20661;-69
2022/12/03 09:29:57;;;;;;;5.20;1.60;;;20.00;72.10;;;;;;5039143;28;20188;-68
2022/12/03 09:32:24;;;;;;;5.80;1.73;;;19.90;72.50;;;;;;5034839;28;20172;-69
2022/12/03 09:34:53;;;;;;;5.63;1.47;;;19.90;72.70;;;;;;5038467;28;20191;-68
2022/12/03 09:37:21;;;;;;;9.00;2.00;;;19.90;72.80;;;;;;5038642;28;20196;-69
2022/12/03 09:39:48;;;;;;;9.83;2.03;;;19.80;73.10;;;;;;5043522;28;20185;-68
2022/12/03 09:42:16;;;;;;;5.93;1.90;;;19.80;73.00;;;;;;5045300;28;20237;-68
2022/12/03 09:44:44;;;;;;;9.17;1.87;;;19.80;73.20;;;;;;5034137;28;20251;-68
2022/12/03 09:47:11;;;;;;;11.03;2.13;;;19.80;73.40;;;;;;5034377;28;20275;-68
2022/12/03 09:49:39;;;;;;;4.30;1.30;;;19.70;73.70;;;;;;5034366;28;20177;-67
2022/12/03 09:52:08;;;;;;;8.57;1.90;;;19.80;73.80;;;;;;5034414;28;20176;-68
2022/12/03 09:54:36;;;;;;;9.10;1.90;;;19.70;73.70;;;;;;5034658;28;20173;-68
2022/12/03 09:57:06;;;;;;;7.00;1.93;;;19.70;73.90;;;;;;5034388;28;20176;-67
2022/12/03 09:59:34;;;;;;;9.53;1.80;;;19.70;74.20;;;;;;5051545;28;20180;-68
2022/12/03 10:02:02;;;;;;;5.13;1.90;;;19.70;74.30;;;;;;5047942;28;20555;-68
2022/12/03 10:04:30;;;;;;;7.37;1.83;;;19.70;74.30;;;;;;5044805;28;20602;-68
2022/12/03 10:06:58;;;;;;;8.80;2.27;;;19.70;74.30;;;;;;5044616;28;20181;-68
2022/12/03 10:09:28;;;;;;;9.10;2.10;;;19.70;74.30;;;;;;5039412;28;20183;-68
2022/12/03 10:11:59;;;;;;;8.43;1.90;;;19.70;74.60;;;;;;5044897;28;20179;-68
2022/12/03 10:14:27;;;;;;;7.10;1.70;;;19.60;74.40;;;;;;5050527;28;20184;-69
2022/12/03 10:16:55;;;;;;;7.73;1.60;;;19.60;74.60;;;;;;5048831;28;20704;-69
2022/12/03 10:19:28;;;;;;;10.80;2.30;;;19.70;74.70;;;;;;5033112;28;20180;-69
2022/12/03 10:21:56;;;;;;;7.37;2.03;;;19.60;74.70;;;;;;5038111;28;20656;-68
2022/12/03 10:24:29;;;;;;;10.97;2.43;;;19.60;74.90;;;;;;5033815;28;20262;-68
2022/12/03 10:26:59;;;;;;;7.83;2.30;;;19.60;75.10;;;;;;5034230;28;20271;-69
2022/12/03 10:29:34;;;;;;;11.67;2.03;;;19.60;75.20;;;;;;5037967;28;20177;-69
2022/12/03 10:32:09;;;;;;;4.97;1.57;;;19.50;75.00;;;;;;5038776;28;20168;-67
2022/12/03 10:34:39;;;;;;;7.60;2.00;;;19.50;75.20;;;;;;5038089;28;20256;-69
2022/12/03 10:37:13;;;;;;;8.77;2.10;;;19.50;75.50;;;;;;5041709;28;20276;-69
2022/12/03 10:40:01;;;;;;;8.57;2.37;;;19.50;75.70;;;;;;5041828;28;20241;-68
2022/12/03 10:42:34;;;;;;;8.93;2.03;;;19.50;75.50;;;;;;5045026;28;20322;-68
2022/12/03 10:45:19;;;;;;;5.93;1.60;;;19.50;75.50;;;;;;5033134;28;20270;-68
2022/12/03 10:48:15;;;;;;;7.97;1.73;;;19.40;75.00;;;;;;5041355;28;20217;-68
2022/12/03 10:50:51;;;;;;;5.90;1.80;;;19.40;75.10;;;;;;5045977;28;20180;-67
2022/12/03 10:53:21;;;;;;;6.57;1.80;;;19.40;75.10;;;;;;5047824;28;20195;-67
2022/12/03 10:55:50;;;;;;;7.90;1.70;;;19.40;75.10;;;;;;5039373;28;20554;-68
2022/12/03 10:58:33;;;;;;;4.10;1.47;;;19.40;75.10;;;;;;5043640;28;20180;-67
2022/12/03 11:01:06;;;;;;;9.33;2.17;;;19.40;75.20;;;;;;5050659;28;20188;-68
2022/12/03 11:03:35;;;;;;;7.87;1.80;;;19.40;75.30;;;;;;5038108;28;20255;-67
2022/12/03 11:06:04;;;;;;;8.23;1.90;;;19.40;75.20;;;;;;5041880;28;20691;-68
2022/12/03 11:08:34;;;;;;;8.77;2.00;;;19.40;75.30;;;;;;5045827;28;20185;-69
2022/12/03 11:11:03;;;;;;;6.50;1.80;;;19.30;75.60;;;;;;5039722;28;20540;-69
2022/12/03 11:13:33;;;;;;;4.57;1.80;;;19.30;75.70;;;;;;5043483;28;20192;-68
2022/12/03 11:16:03;;;;;;;9.87;2.03;;;19.30;75.50;;;;;;5043221;28;20233;-68
2022/12/03 11:18:36;;;;;;;13.00;2.67;;;19.30;75.50;;;;;;5038316;28;20271;-68
2022/12/03 11:21:12;;;;;;;8.50;2.00;;;19.30;75.60;;;;;;5044040;28;20182;-68
2022/12/03 11:23:45;;;;;;;9.73;2.13;;;19.30;75.70;;;;;;5045398;28;20188;-67
2022/12/03 11:26:16;;;;;;;5.80;1.60;;;19.30;75.40;;;;;;5038908;28;20198;-69
2022/12/03 11:28:46;;;;;;;7.50;1.87;;;19.30;75.50;;;;;;5046900;28;20222;-68
2022/12/03 11:31:45;;;;;;;5.83;1.70;;;19.30;75.50;;;;;;5050780;28;20255;-68
2022/12/03 11:34:21;;;;;;;9.73;2.17;;;19.30;75.70;;;;;;5036510;28;20537;-70
2022/12/03 11:37:10;;;;;;;7.17;2.03;;;19.30;75.70;;;;;;5035936;28;20184;-68
2022/12/03 11:39:55;;;;;;;14.90;2.33;;;19.20;75.60;;;;;;5040046;28;20198;-68
2022/12/03 11:42:25;;;;;;;7.13;2.20;;;19.20;75.90;;;;;;5044624;28;20274;-68
2022/12/03 11:45:18;;;;;;;9.80;2.20;;;19.30;76.10;;;;;;5032434;28;20216;-68
2022/12/03 11:48:22;;;;;;;12.40;6.90;;;19.30;76.10;;;;;;5046203;28;20227;-69
2022/12/03 11:50:52;;;;;;;21.77;11.60;;;19.20;76.40;;;;;;5026038;28;20198;-68
2022/12/03 11:53:31;;;;;;;10.40;2.37;;;19.20;76.70;;;;;;5028355;28;20188;-69
2022/12/03 11:56:07;;;;;;;23.00;11.07;;;19.20;76.70;;;;;;5032582;28;20239;-69
2022/12/03 11:58:41;;;;;;;13.07;6.23;;;19.20;76.90;;;;;;5037358;28;20211;-69
2022/12/03 12:01:09;;;;;;;8.00;2.30;;;19.20;77.20;;;;;;5032295;28;20204;-69
2022/12/03 12:03:42;;;;;;;3.93;1.70;;;19.20;77.20;;;;;;5032203;28;20176;-69
2022/12/03 12:06:16;;;;;;;6.13;2.00;;;19.10;77.30;;;;;;5034652;28;20543;-69
2022/12/03 12:08:52;;;;;;;7.17;1.70;;;19.10;77.20;;;;;;5064488;28;20184;-70
2022/12/03 12:11:21;;;;;;;8.27;1.97;;;19.10;76.90;;;;;;5040552;28;20195;-69
2022/12/03 12:13:54;;;;;;;9.10;2.23;;;19.10;76.90;;;;;;5032056;28;20532;-68
2022/12/03 12:16:44;;;;;;;5.17;1.70;;;19.10;76.90;;;;;;5032386;28;20177;-69
2022/12/03 12:19:36;;;;;;;7.50;2.00;;;19.10;77.10;;;;;;5031894;28;20172;-68
2022/12/03 12:22:26;;;;;;;10.30;2.30;;;19.10;77.20;;;;;;5034030;28;20647;-68
2022/12/03 12:25:24;;;;;;;10.53;1.80;;;19.20;77.00;;;;;;5035740;28;20223;-69
2022/12/03 12:27:52;;;;;;;8.07;1.87;;;19.20;76.90;;;;;;5042029;28;20181;-69
2022/12/03 12:30:21;;;;;;;6.83;1.53;;;19.20;76.90;;;;;;5048582;28;20191;-68
2022/12/03 12:33:01;;;;;;;12.70;2.07;;;19.20;76.50;;;;;;5035749;28;20173;-68
2022/12/03 12:35:31;;;;;;;7.07;1.80;;;19.10;76.70;;;;;;5035209;28;20183;-69
2022/12/03 12:38:10;;;;;;;9.80;2.07;;;19.20;76.70;;;;;;5035475;28;20199;-68
2022/12/03 12:40:40;;;;;;;8.40;1.70;;;19.00;76.70;;;;;;5049330;28;20179;-68
2022/12/03 12:43:21;;;;;;;8.63;1.80;;;19.10;76.80;;;;;;5035746;28;20173;-69
2022/12/03 12:45:50;;;;;;;9.47;1.83;;;19.00;76.90;;;;;;5035556;28;20219;-69
2022/12/03 12:48:22;;;;;;;7.73;2.17;;;19.10;77.10;;;;;;5035211;28;20707;-69
2022/12/03 12:51:17;;;;;;;4.63;1.70;;;19.00;77.10;;;;;;5046842;28;20190;-69
2022/12/03 12:53:45;;;;;;;5.80;1.60;;;19.00;77.10;;;;;;5035059;28;20718;-68
2022/12/03 12:56:28;;;;;;;8.90;1.77;;;19.00;77.00;;;;;;5041656;28;20181;-68
2022/12/03 12:59:07;;;;;;;7.47;1.90;;;19.00;77.30;;;;;;5042419;28;20203;-69
2022/12/03 13:01:35;;;;;;;9.33;1.80;;;19.00;77.10;;;;;;5048995;28;20251;-69
2022/12/03 13:04:13;;;;;;;9.10;2.13;;;19.00;77.20;;;;;;5038825;28;20237;-69
2022/12/03 13:06:41;;;;;;;5.43;1.70;;;18.90;77.40;;;;;;5037248;28;20649;-69
2022/12/03 13:09:16;;;;;;;7.10;2.10;;;18.90;77.50;;;;;;5041879;28;20659;-68
2022/12/03 13:11:46;;;;;;;6.10;1.33;;;18.90;77.80;;;;;;5050602;28;20183;-69
2022/12/03 13:14:16;;;;;;;8.83;1.97;;;18.90;77.80;;;;;;5048945;28;20188;-68
2022/12/03 13:16:44;;;;;;;6.90;1.63;;;18.90;77.80;;;;;;5037767;28;20173;-68
2022/12/03 13:19:30;;;;;;;13.70;1.80;;;18.90;77.80;;;;;;5034496;28;20185;-68
2022/12/03 13:22:09;;;;;;;4.40;1.80;;;18.90;78.00;;;;;;5037574;28;20187;-68